WIMM/MES METAR and TAF weather

Enter ICAO airport designator
Station Type Date Time Source
WIMM METAR 2021/04/14 20:30 UTC NOAA

WIMM 142030Z 21002KT 220V280 5000 HZ SCT017 24/24 Q1009 NOSIG


Station Type Date Time Source
WIMM Decoded METAR 2021/04/14 20:30 UTC NOAA

Medan / Polonia, Indonesia (WIMM) 03-34N 098-41E 25M
Apr 14, 2021 - 04:30 PM EDT / 2021.04.14 2030 UTC
Wind: from the SSW (210 degrees) at 2 MPH (2 KT) (direction variable):0
Visibility: 3 mile(s):0
Sky conditions: partly cloudy
Weather: haze
Temperature: 75 F (24 C)
Dew Point: 75 F (24 C)
Relative Humidity: 100%
Pressure (altimeter): 29.80 in. Hg (1009 hPa)
ob: WIMM 142030Z 21002KT 220V280 5000 HZ SCT017 24/24 Q1009 NOSIG
cycle: 20

Station Type Date Time Source
WIMM TAF 2021/04/14 18:09 UTC NOAA

TAF WIMM 141700Z 1418/1518 VRB04KT 6000 SCT017
TEMPO 1418/1420 VRB12KT 3000 -TSRA FEW016CB BKN017
BECMG 1502/1504 01009KT 9999
BECMG 1511/1513 VRB05KT 4000 HZ

Example: see airport list